createdAt,value
2022-08-03T00:01:38.536Z,1.70
2022-08-03T00:04:05.783Z,1.73
2022-08-03T00:06:36.777Z,1.50
2022-08-03T00:09:04.956Z,1.40
2022-08-03T00:11:31.412Z,1.52
2022-08-03T00:13:57.770Z,1.70
2022-08-03T00:16:26.199Z,1.40
2022-08-03T00:18:52.882Z,1.58
2022-08-03T00:21:19.292Z,1.83
2022-08-03T00:23:51.120Z,1.65
2022-08-03T00:26:18.427Z,1.60
2022-08-03T00:28:44.788Z,1.50
2022-08-03T00:31:13.682Z,1.42
2022-08-03T00:33:59.150Z,1.73
2022-08-03T00:36:26.375Z,1.55
2022-08-03T00:38:52.719Z,1.88
2022-08-03T00:41:19.081Z,2.00
2022-08-03T00:43:47.302Z,1.52
2022-08-03T00:46:17.527Z,1.70
2022-08-03T00:48:47.143Z,1.63
2022-08-03T00:51:13.639Z,1.60
2022-08-03T00:53:40.026Z,1.45
2022-08-03T00:56:06.473Z,1.65
2022-08-03T00:58:32.873Z,1.50
2022-08-03T01:00:59.391Z,1.50
2022-08-03T01:03:25.918Z,1.98
2022-08-03T01:05:52.171Z,1.58
2022-08-03T01:08:23.731Z,1.42
2022-08-03T01:11:10.522Z,1.95
2022-08-03T01:14:18.641Z,1.73
2022-08-03T01:17:14.464Z,1.92
2022-08-03T01:19:50.415Z,1.50
2022-08-03T01:22:17.053Z,1.88
2022-08-03T01:25:21.417Z,1.73
2022-08-03T01:27:56.902Z,1.80
2022-08-03T01:30:30.394Z,2.03
2022-08-03T01:33:05.524Z,1.80
2022-08-03T01:35:42.412Z,1.95
2022-08-03T01:38:12.073Z,2.05
2022-08-03T01:40:40.010Z,1.83
2022-08-03T01:43:07.882Z,1.63
2022-08-03T01:45:34.556Z,1.77
2022-08-03T01:48:02.899Z,1.58
2022-08-03T01:50:30.899Z,1.70
2022-08-03T01:52:57.909Z,1.70
2022-08-03T01:55:28.069Z,1.50
2022-08-03T01:58:05.620Z,1.50
2022-08-03T02:00:33.518Z,1.55
2022-08-03T02:03:00.853Z,1.50
2022-08-03T02:05:28.355Z,1.65
2022-08-03T02:07:56.227Z,1.55
2022-08-03T02:10:34.750Z,1.80
2022-08-03T02:13:03.711Z,1.83
2022-08-03T02:15:30.463Z,2.03
2022-08-03T02:17:57.635Z,1.70
2022-08-03T02:20:25.150Z,1.70
2022-08-03T02:22:51.600Z,1.83
2022-08-03T02:25:18.029Z,1.80
2022-08-03T02:27:57.015Z,1.55
2022-08-03T02:30:29.981Z,2.03
2022-08-03T02:32:57.870Z,1.48
2022-08-03T02:35:26.618Z,1.75
2022-08-03T02:38:00.379Z,1.63
2022-08-03T02:40:28.224Z,1.67
2022-08-03T02:42:56.702Z,1.67
2022-08-03T02:45:24.471Z,1.90
2022-08-03T02:47:53.583Z,1.75
2022-08-03T02:50:22.119Z,1.92
2022-08-03T02:52:49.798Z,2.10
2022-08-03T02:55:16.784Z,1.70
2022-08-03T02:57:44.462Z,1.60
2022-08-03T03:00:11.359Z,1.52
2022-08-03T03:02:38.049Z,1.90
2022-08-03T03:05:53.174Z,1.73
2022-08-03T03:07:53.187Z,1.75
2022-08-03T03:10:22.498Z,1.63
2022-08-03T03:12:52.093Z,1.80
2022-08-03T03:15:18.861Z,1.70
2022-08-03T03:17:45.396Z,1.98
2022-08-03T03:20:12.025Z,1.80
2022-08-03T03:22:38.802Z,1.70
2022-08-03T03:25:07.166Z,1.95
2022-08-03T03:27:33.982Z,1.77
2022-08-03T03:30:00.495Z,1.80
2022-08-03T03:32:28.150Z,1.60
2022-08-03T03:34:55.889Z,1.73
2022-08-03T03:37:22.290Z,2.10
2022-08-03T03:39:48.678Z,1.95
2022-08-03T03:42:15.123Z,1.75
2022-08-03T03:44:41.594Z,2.05
2022-08-03T03:47:07.970Z,2.40
2022-08-03T03:49:34.585Z,2.20
2022-08-03T03:52:01.015Z,2.45
2022-08-03T03:54:28.993Z,2.38
2022-08-03T03:56:56.090Z,2.35
2022-08-03T03:59:22.474Z,2.17
2022-08-03T04:01:48.914Z,1.80
2022-08-03T04:04:44.233Z,2.05
2022-08-03T04:07:29.159Z,1.80
2022-08-03T04:10:15.011Z,2.10
2022-08-03T04:12:49.994Z,2.08
2022-08-03T04:15:21.239Z,1.80
2022-08-03T04:17:48.854Z,1.85
2022-08-03T04:20:15.650Z,2.30
2022-08-03T04:22:42.295Z,2.30
2022-08-03T04:25:10.428Z,2.25
2022-08-03T04:27:38.571Z,1.70
2022-08-03T04:30:06.095Z,1.88
2022-08-03T04:32:33.846Z,2.20
2022-08-03T04:35:00.406Z,2.08
2022-08-03T04:37:35.946Z,1.67
2022-08-03T04:40:04.001Z,2.13
2022-08-03T04:42:31.908Z,2.25
2022-08-03T04:45:01.303Z,2.10
2022-08-03T04:47:29.831Z,2.08
2022-08-03T04:49:56.344Z,2.03
2022-08-03T04:52:22.718Z,1.90
2022-08-03T04:54:50.521Z,2.15
2022-08-03T04:57:22.204Z,2.10
2022-08-03T05:00:01.953Z,1.98
2022-08-03T05:02:29.615Z,2.70
2022-08-03T05:04:55.981Z,2.95
2022-08-03T05:07:24.724Z,2.75
2022-08-03T05:09:52.798Z,2.40
2022-08-03T05:12:24.135Z,3.45
2022-08-03T05:14:50.471Z,3.50
2022-08-03T05:17:17.124Z,3.10
2022-08-03T05:19:43.683Z,2.53
2022-08-03T05:22:10.475Z,2.60
2022-08-03T05:24:36.894Z,2.13
2022-08-03T05:27:03.314Z,2.20
2022-08-03T05:29:29.698Z,2.33
2022-08-03T05:31:56.120Z,2.42
2022-08-03T05:34:22.474Z,2.25
2022-08-03T05:36:48.847Z,2.00
2022-08-03T05:39:15.266Z,2.60
2022-08-03T05:41:41.661Z,2.35
2022-08-03T05:44:08.028Z,2.38
2022-08-03T05:46:34.470Z,2.47
2022-08-03T05:49:01.147Z,2.40
2022-08-03T05:51:28.930Z,2.85
2022-08-03T05:53:55.455Z,2.60
2022-08-03T05:56:24.210Z,2.90
2022-08-03T05:58:51.983Z,3.00
2022-08-03T06:01:21.406Z,3.17
2022-08-03T06:03:48.780Z,3.67
2022-08-03T06:06:15.299Z,2.92
2022-08-03T06:08:42.131Z,3.50
2022-08-03T06:11:09.606Z,3.13
2022-08-03T06:13:36.063Z,3.38
2022-08-03T06:16:05.707Z,3.15
2022-08-03T06:18:32.110Z,3.15
2022-08-03T06:20:58.475Z,3.05
2022-08-03T06:23:54.276Z,3.25
2022-08-03T06:26:22.482Z,2.90
2022-08-03T06:28:51.436Z,2.70
2022-08-03T06:31:18.443Z,3.03
2022-08-03T06:34:30.417Z,3.22
2022-08-03T06:36:31.780Z,3.00
2022-08-03T06:38:59.166Z,2.65
2022-08-03T06:41:26.808Z,3.20
2022-08-03T06:44:03.608Z,2.35
2022-08-03T06:46:31.278Z,2.60
2022-08-03T06:48:57.693Z,3.13
2022-08-03T06:52:02.616Z,2.88
2022-08-03T06:54:10.803Z,2.80
2022-08-03T06:56:37.418Z,2.88
2022-08-03T06:59:03.839Z,2.60
2022-08-03T07:01:30.263Z,3.10
2022-08-03T07:03:56.661Z,3.10
2022-08-03T07:06:23.059Z,2.95
2022-08-03T07:08:52.304Z,2.70
2022-08-03T07:11:20.076Z,3.00
2022-08-03T07:13:46.570Z,2.80
2022-08-03T07:16:12.910Z,2.88
2022-08-03T07:18:40.323Z,2.80
2022-08-03T07:21:08.205Z,2.30
2022-08-03T07:23:34.847Z,2.40
2022-08-03T07:26:01.199Z,2.60
2022-08-03T07:28:28.008Z,2.65
2022-08-03T07:30:54.371Z,2.40
2022-08-03T07:33:20.830Z,2.22
2022-08-03T07:35:47.221Z,2.25
2022-08-03T07:38:13.582Z,2.50
2022-08-03T07:40:44.424Z,2.88
2022-08-03T07:43:12.501Z,2.50
2022-08-03T07:45:38.854Z,2.63
2022-08-03T07:48:08.830Z,2.65
2022-08-03T07:50:38.424Z,2.22
2022-08-03T07:53:04.798Z,2.65
2022-08-03T07:55:31.305Z,2.60
2022-08-03T07:58:09.734Z,2.70
2022-08-03T08:00:36.506Z,2.67
2022-08-03T08:03:02.932Z,2.95
2022-08-03T08:05:29.468Z,2.63
2022-08-03T08:07:55.842Z,2.58
2022-08-03T08:10:22.541Z,2.40
2022-08-03T08:12:49.127Z,2.67
2022-08-03T08:15:15.595Z,2.20
2022-08-03T08:17:43.106Z,2.05
2022-08-03T08:20:11.464Z,2.78
2022-08-03T08:22:37.936Z,2.58
2022-08-03T08:25:07.356Z,2.30
2022-08-03T08:28:29.647Z,2.47
2022-08-03T08:30:21.835Z,2.47
2022-08-03T08:32:48.892Z,1.90
2022-08-03T08:35:16.363Z,1.90
2022-08-03T08:37:43.245Z,2.05
2022-08-03T08:40:19.611Z,2.00
2022-08-03T08:42:58.030Z,2.58
2022-08-03T08:45:25.457Z,2.90
2022-08-03T08:47:54.740Z,1.92
2022-08-03T08:50:27.874Z,2.30
2022-08-03T08:52:55.169Z,2.22
2022-08-03T08:55:23.237Z,2.20
2022-08-03T08:57:55.535Z,1.80
2022-08-03T09:00:21.947Z,1.95
2022-08-03T09:02:48.358Z,2.08
2022-08-03T09:05:16.686Z,1.83
2022-08-03T09:07:44.013Z,2.08
2022-08-03T09:10:13.698Z,2.10
2022-08-03T09:12:45.261Z,1.95
2022-08-03T09:15:31.094Z,2.08
2022-08-03T09:17:59.711Z,2.30
2022-08-03T09:20:28.479Z,2.03
2022-08-03T09:23:19.067Z,2.78
2022-08-03T09:25:57.809Z,2.13
2022-08-03T09:29:00.569Z,2.50
2022-08-03T09:31:20.586Z,1.80
2022-08-03T09:33:48.215Z,2.20
2022-08-03T09:36:37.373Z,1.80
2022-08-03T09:39:06.343Z,2.00
2022-08-03T09:41:33.532Z,1.98
2022-08-03T09:43:59.957Z,1.85
2022-08-03T09:46:28.378Z,1.83
2022-08-03T09:49:11.619Z,2.10
2022-08-03T09:52:33.519Z,2.00
2022-08-03T09:54:27.553Z,1.88
2022-08-03T09:56:54.047Z,2.38
2022-08-03T09:59:28.490Z,1.90
2022-08-03T10:01:56.178Z,1.98
2022-08-03T10:04:22.939Z,2.00
2022-08-03T10:07:06.926Z,2.08
2022-08-03T10:09:33.359Z,1.92
2022-08-03T10:12:16.978Z,1.80
2022-08-03T10:14:45.576Z,1.67
2022-08-03T10:17:12.023Z,1.80
2022-08-03T10:19:38.499Z,2.10
2022-08-03T10:22:11.892Z,1.42
2022-08-03T10:24:40.191Z,1.80
2022-08-03T10:27:07.964Z,2.20
2022-08-03T10:29:41.921Z,2.20
2022-08-03T10:32:19.092Z,1.70
2022-08-03T10:34:47.037Z,1.88
2022-08-03T10:37:15.741Z,1.90
2022-08-03T10:39:53.225Z,1.75
2022-08-03T10:42:24.927Z,1.70
2022-08-03T10:44:58.595Z,1.77
2022-08-03T10:47:25.017Z,1.90
2022-08-03T10:49:51.721Z,2.30
2022-08-03T10:52:31.773Z,2.20
2022-08-03T10:55:18.779Z,1.60
2022-08-03T10:57:58.632Z,1.83
2022-08-03T11:00:28.114Z,1.92
2022-08-03T11:03:04.425Z,2.13
2022-08-03T11:05:33.204Z,1.88
2022-08-03T11:08:25.867Z,1.75
2022-08-03T11:10:55.177Z,1.77
2022-08-03T11:13:23.709Z,2.13
2022-08-03T11:15:52.571Z,1.70
2022-08-03T11:18:19.362Z,2.00
2022-08-03T11:20:57.152Z,2.00
2022-08-03T11:24:04.308Z,1.60
2022-08-03T11:26:29.350Z,2.28
2022-08-03T11:29:29.577Z,1.80
2022-08-03T11:31:56.150Z,1.83
2022-08-03T11:34:24.260Z,1.88
2022-08-03T11:37:23.154Z,1.60
2022-08-03T11:39:51.735Z,1.92
2022-08-03T11:42:38.776Z,2.00
2022-08-03T11:45:07.534Z,1.65
2022-08-03T11:47:36.920Z,1.85
2022-08-03T11:50:18.889Z,1.70
2022-08-03T11:52:45.306Z,2.20
2022-08-03T11:55:13.774Z,1.83
2022-08-03T11:59:01.043Z,2.10
2022-08-03T12:00:32.050Z,1.90
2022-08-03T12:03:07.323Z,1.67
2022-08-03T12:05:35.660Z,2.15
2022-08-03T12:08:04.148Z,1.55
2022-08-03T12:10:33.268Z,1.88
2022-08-03T12:13:00.742Z,1.77
2022-08-03T12:15:31.155Z,1.45
2022-08-03T12:17:58.190Z,1.60
2022-08-03T12:20:31.555Z,1.80
2022-08-03T12:23:06.427Z,2.13
2022-08-03T12:25:39.056Z,1.73
2022-08-03T12:31:06.525Z,2.30
2022-08-03T12:33:55.645Z,1.90
2022-08-03T12:36:22.124Z,1.55
2022-08-03T12:38:56.030Z,1.70
2022-08-03T12:41:29.054Z,1.85
2022-08-03T12:43:55.429Z,1.83
2022-08-03T12:46:21.839Z,1.85
2022-08-03T12:49:11.241Z,1.58
2022-08-03T12:51:43.519Z,1.63
2022-08-03T12:54:16.990Z,1.70
2022-08-03T12:57:06.030Z,1.67
2022-08-03T12:59:49.939Z,1.55
2022-08-03T13:02:24.262Z,1.60
2022-08-03T13:04:52.594Z,1.83
2022-08-03T13:07:20.506Z,1.70
2022-08-03T13:09:54.706Z,1.83
2022-08-03T13:12:28.560Z,1.67
2022-08-03T13:14:56.848Z,2.15
2022-08-03T13:17:23.561Z,1.80
2022-08-03T13:19:50.379Z,2.00
2022-08-03T13:22:22.025Z,1.70
2022-08-03T13:24:50.189Z,1.70
2022-08-03T13:28:01.092Z,1.60
2022-08-03T13:30:04.459Z,1.33
2022-08-03T13:32:30.819Z,1.00
2022-08-03T13:34:57.190Z,1.40
2022-08-03T13:37:23.866Z,1.27
2022-08-03T13:39:58.877Z,1.50
2022-08-03T13:42:29.059Z,1.38
2022-08-03T13:44:55.483Z,1.50
2022-08-03T13:47:22.158Z,1.65
2022-08-03T13:49:59.364Z,1.52
2022-08-03T13:52:29.136Z,1.48
2022-08-03T13:54:55.782Z,1.33
2022-08-03T13:58:04.085Z,1.60
2022-08-03T14:00:09.231Z,1.50
2022-08-03T14:02:35.702Z,1.17
2022-08-03T14:05:02.131Z,1.40
2022-08-03T14:07:28.522Z,1.30
2022-08-03T14:09:54.950Z,1.25
2022-08-03T14:12:21.338Z,1.10
2022-08-03T14:14:47.698Z,1.30
2022-08-03T14:17:14.047Z,1.10
2022-08-03T14:19:53.663Z,1.27
2022-08-03T14:22:20.670Z,1.10
2022-08-03T14:24:47.105Z,1.33
2022-08-03T14:27:13.451Z,1.17
2022-08-03T14:29:39.801Z,1.33
2022-08-03T14:32:10.024Z,1.13
2022-08-03T14:34:39.279Z,1.10
2022-08-03T14:37:05.815Z,1.50
2022-08-03T14:42:20.151Z,1.42
2022-08-03T14:44:46.630Z,1.30
2022-08-03T14:47:13.411Z,1.20
2022-08-03T14:50:38.784Z,1.55
2022-08-03T14:52:26.257Z,1.10
2022-08-03T14:54:52.643Z,1.30
2022-08-03T14:57:19.282Z,1.20
2022-08-03T14:59:56.635Z,1.25
2022-08-03T15:02:24.821Z,1.30
2022-08-03T15:04:51.964Z,1.15
2022-08-03T15:07:18.857Z,1.20
2022-08-03T15:09:45.479Z,0.90
2022-08-03T15:12:11.987Z,1.35
2022-08-03T15:14:38.366Z,1.30
2022-08-03T15:17:05.412Z,1.38
2022-08-03T15:20:01.316Z,1.30
2022-08-03T15:22:20.794Z,1.35
2022-08-03T15:24:51.956Z,1.73
2022-08-03T15:27:18.865Z,1.52
2022-08-03T15:30:09.631Z,1.40
2022-08-03T15:32:34.940Z,1.15
2022-08-03T15:35:01.796Z,1.38
2022-08-03T15:37:28.514Z,1.40
2022-08-03T15:39:59.393Z,1.23
2022-08-03T15:42:26.721Z,1.27
2022-08-03T15:44:53.829Z,1.20
2022-08-03T15:47:21.333Z,1.52
2022-08-03T15:49:47.935Z,1.27
2022-08-03T15:52:14.300Z,1.17
2022-08-03T15:54:40.715Z,1.23
2022-08-03T15:57:07.111Z,1.42
2022-08-03T15:59:33.662Z,1.40
2022-08-03T16:02:00.183Z,1.10
2022-08-03T16:04:26.691Z,1.25
2022-08-03T16:06:53.174Z,1.42
2022-08-03T16:09:22.942Z,1.10
2022-08-03T16:11:50.974Z,1.10
2022-08-03T16:14:34.678Z,1.10
2022-08-03T16:17:04.232Z,1.35
2022-08-03T16:19:30.632Z,1.23
2022-08-03T16:21:57.040Z,1.20
2022-08-03T16:24:27.791Z,1.25
2022-08-03T16:26:54.939Z,1.25
2022-08-03T16:29:22.663Z,1.00
2022-08-03T16:31:51.132Z,1.20
2022-08-03T16:34:18.226Z,1.25
2022-08-03T16:36:45.455Z,1.38
2022-08-03T16:39:11.831Z,1.10
2022-08-03T16:41:53.519Z,1.30
2022-08-03T16:44:25.134Z,1.30
2022-08-03T16:46:53.523Z,1.20
2022-08-03T16:49:56.102Z,1.33
2022-08-03T16:52:06.485Z,1.60
2022-08-03T16:54:33.933Z,1.40
2022-08-03T16:57:01.448Z,1.40
2022-08-03T16:59:36.357Z,1.60
2022-08-03T17:02:09.538Z,1.23
2022-08-03T17:04:36.761Z,1.23
2022-08-03T17:07:07.534Z,1.33
2022-08-03T17:09:38.654Z,1.48
2022-08-03T17:12:05.847Z,1.50
2022-08-03T17:14:33.664Z,1.60
2022-08-03T17:17:01.856Z,1.33
2022-08-03T17:19:32.419Z,1.50
2022-08-03T17:22:04.376Z,1.40
2022-08-03T17:24:32.937Z,1.38
2022-08-03T17:27:09.029Z,1.20
2022-08-03T17:29:39.191Z,1.40
2022-08-03T17:32:15.048Z,3.13
2022-08-03T17:34:46.434Z,1.27
2022-08-03T17:37:50.154Z,1.38
2022-08-03T17:40:00.777Z,1.63
2022-08-03T17:42:33.058Z,1.60
2022-08-03T17:45:02.204Z,1.40
2022-08-03T17:47:42.688Z,1.40
2022-08-03T17:50:24.086Z,3.22
2022-08-03T17:53:06.798Z,2.20
2022-08-03T17:55:55.980Z,1.95
2022-08-03T17:58:33.599Z,1.63
2022-08-03T18:02:00.846Z,1.85
2022-08-03T18:04:10.663Z,1.90
2022-08-03T18:06:55.911Z,2.08
2022-08-03T18:10:03.450Z,2.15
2022-08-03T18:12:18.651Z,2.10
2022-08-03T18:14:57.773Z,2.45
2022-08-03T18:17:55.146Z,1.52
2022-08-03T18:20:32.774Z,1.70
2022-08-03T18:23:04.690Z,1.70
2022-08-03T18:25:45.657Z,1.52
2022-08-03T18:28:18.710Z,1.80
2022-08-03T18:30:53.976Z,1.73
2022-08-03T18:34:19.088Z,1.92
2022-08-03T18:36:21.801Z,1.70
2022-08-03T18:38:58.400Z,1.42
2022-08-03T18:41:32.639Z,1.58
2022-08-03T18:47:07.029Z,1.70
2022-08-03T18:50:13.295Z,2.00
2022-08-03T18:52:53.100Z,1.85
2022-08-03T18:55:33.003Z,2.38
2022-08-03T18:58:06.184Z,1.63
2022-08-03T19:00:54.092Z,1.77
2022-08-03T19:03:24.089Z,1.90
2022-08-03T19:06:13.230Z,1.70
2022-08-03T19:08:59.128Z,1.90
2022-08-03T19:12:11.132Z,2.90
2022-08-03T19:14:28.791Z,3.15
2022-08-03T19:16:58.458Z,2.38
2022-08-03T19:19:25.230Z,2.05
2022-08-03T19:22:10.923Z,1.90
2022-08-03T19:24:39.709Z,1.80
2022-08-03T19:27:10.616Z,2.13
2022-08-03T19:29:59.123Z,2.05
2022-08-03T19:32:28.403Z,1.60
2022-08-03T19:34:55.460Z,1.70
2022-08-03T19:37:22.193Z,2.10
2022-08-03T19:39:56.568Z,1.92
2022-08-03T19:42:31.654Z,1.60
2022-08-03T19:45:11.356Z,1.90
2022-08-03T19:47:51.846Z,1.80
2022-08-03T19:50:20.137Z,1.70
2022-08-03T19:52:47.763Z,1.80
2022-08-03T19:55:16.731Z,1.90
2022-08-03T19:57:47.105Z,1.83
2022-08-03T20:00:19.284Z,1.48
2022-08-03T20:02:45.959Z,1.70
2022-08-03T20:05:15.424Z,2.03
2022-08-03T20:07:47.918Z,2.10
2022-08-03T20:10:15.828Z,1.98
2022-08-03T20:12:43.613Z,1.75
2022-08-03T20:15:10.862Z,1.63
2022-08-03T20:17:57.068Z,1.67
2022-08-03T20:20:33.006Z,1.50
2022-08-03T20:23:00.638Z,1.70
2022-08-03T20:25:38.817Z,1.55
2022-08-03T20:28:14.942Z,1.83
2022-08-03T20:30:43.980Z,1.50
2022-08-03T20:33:10.866Z,1.70
2022-08-03T20:35:37.292Z,1.50
2022-08-03T20:38:03.703Z,1.80
2022-08-03T20:40:30.097Z,1.65
2022-08-03T20:42:56.519Z,1.70
2022-08-03T20:46:00.734Z,1.50
2022-08-03T20:48:10.052Z,1.52
2022-08-03T20:50:38.171Z,1.30
2022-08-03T20:53:04.859Z,1.42
2022-08-03T20:55:47.235Z,1.60
2022-08-03T20:58:19.871Z,1.70
2022-08-03T21:00:51.427Z,1.63
2022-08-03T21:03:18.221Z,1.60
2022-08-03T21:05:51.800Z,1.63
2022-08-03T21:08:21.765Z,1.45
2022-08-03T21:10:49.148Z,1.45
2022-08-03T21:16:01.125Z,1.67
2022-08-03T21:18:45.585Z,1.80
2022-08-03T21:21:15.276Z,1.80
2022-08-03T21:23:49.175Z,2.10
2022-08-03T21:28:43.372Z,1.95
2022-08-03T21:31:10.280Z,1.73
2022-08-03T21:33:36.668Z,1.70
2022-08-03T21:36:03.495Z,1.75
2022-08-03T21:38:30.607Z,1.67
2022-08-03T21:40:57.030Z,1.92
2022-08-03T21:43:23.410Z,1.48
2022-08-03T21:45:58.874Z,1.83
2022-08-03T21:48:26.697Z,2.20
2022-08-03T21:50:53.334Z,1.80
2022-08-03T21:53:20.184Z,2.17
2022-08-03T21:56:06.005Z,1.80
2022-08-03T21:58:38.779Z,1.77
2022-08-03T22:01:05.417Z,1.90
2022-08-03T22:03:33.035Z,2.22
2022-08-03T22:06:19.890Z,2.17
2022-08-03T22:08:47.625Z,2.20
2022-08-03T22:11:14.219Z,1.85
2022-08-03T22:13:44.325Z,2.17
2022-08-03T22:16:11.191Z,1.85
2022-08-03T22:18:39.202Z,1.73
2022-08-03T22:21:06.991Z,2.00
2022-08-03T22:23:40.334Z,2.17
2022-08-03T22:26:10.698Z,1.83
2022-08-03T22:28:38.022Z,1.83
2022-08-03T22:31:30.709Z,2.15
2022-08-03T22:33:52.541Z,1.83
2022-08-03T22:36:20.550Z,1.63
2022-08-03T22:38:47.812Z,1.77
2022-08-03T22:41:17.121Z,1.85
2022-08-03T22:43:43.669Z,1.80
2022-08-03T22:46:15.627Z,1.80
2022-08-03T22:48:46.533Z,1.55
2022-08-03T22:51:14.869Z,1.90
2022-08-03T22:53:41.439Z,1.88
2022-08-03T22:56:08.664Z,1.70
2022-08-03T22:58:35.321Z,1.80
2022-08-03T23:01:04.303Z,1.92
2022-08-03T23:03:59.877Z,1.85
2022-08-03T23:06:21.654Z,1.45
2022-08-03T23:08:50.285Z,1.58
2022-08-03T23:11:17.859Z,1.73
2022-08-03T23:13:46.179Z,1.80
2022-08-03T23:16:13.390Z,1.67
2022-08-03T23:18:42.126Z,1.70
2022-08-03T23:21:11.303Z,1.88
2022-08-03T23:23:43.899Z,2.00
2022-08-03T23:26:11.559Z,1.50
2022-08-03T23:28:38.418Z,1.60
2022-08-03T23:31:07.910Z,1.75
2022-08-03T23:33:36.455Z,1.75
2022-08-03T23:36:29.848Z,1.65
2022-08-03T23:38:53.424Z,1.80
2022-08-03T23:41:20.067Z,2.10
2022-08-03T23:43:53.515Z,1.73
2022-08-03T23:48:50.113Z,1.67
2022-08-03T23:51:39.912Z,1.80
2022-08-03T23:54:13.998Z,1.60
2022-08-03T23:56:55.421Z,2.15
2022-08-03T23:59:30.651Z,1.73
